sensor_id;sensor_type;location;lat;lon;timestamp;pressure;altitude;pressure_sealevel;temperature;humidity
69306;BME280;56427;51.580;4.656;2022-11-04T00:01:36;100127.78;;;8.45;100.00
69306;BME280;56427;51.580;4.656;2022-11-04T00:04:01;100130.50;;;8.43;100.00
69306;BME280;56427;51.580;4.656;2022-11-04T00:06:27;100134.72;;;8.44;100.00
69306;BME280;56427;51.580;4.656;2022-11-04T00:08:55;100138.13;;;8.45;100.00
69306;BME280;56427;51.580;4.656;2022-11-04T00:11:21;100130.91;;;8.48;100.00
69306;BME280;56427;51.580;4.656;2022-11-04T00:14:07;100131.63;;;8.51;100.00
69306;BME280;56427;51.580;4.656;2022-11-04T00:16:33;100132.84;;;8.56;100.00
69306;BME280;56427;51.580;4.656;2022-11-04T00:19:17;100147.47;;;8.67;100.00
69306;BME280;56427;51.580;4.656;2022-11-04T00:21:43;100156.19;;;8.76;100.00
69306;BME280;56427;51.580;4.656;2022-11-04T00:24:26;100154.03;;;8.81;100.00
69306;BME280;56427;51.580;4.656;2022-11-04T00:27:08;100153.88;;;8.82;100.00
69306;BME280;56427;51.580;4.656;2022-11-04T00:29:51;100164.41;;;8.91;100.00
69306;BME280;56427;51.580;4.656;2022-11-04T00:32:17;100169.84;;;8.97;100.00
69306;BME280;56427;51.580;4.656;2022-11-04T00:35:00;100180.34;;;8.96;100.00
69306;BME280;56427;51.580;4.656;2022-11-04T00:37:25;100179.53;;;8.95;100.00
69306;BME280;56427;51.580;4.656;2022-11-04T00:39:51;100167.53;;;8.94;100.00
69306;BME280;56427;51.580;4.656;2022-11-04T00:42:16;100179.91;;;8.91;100.00
69306;BME280;56427;51.580;4.656;2022-11-04T00:44:41;100182.47;;;8.81;100.00
69306;BME280;56427;51.580;4.656;2022-11-04T00:47:07;100192.16;;;8.79;100.00
69306;BME280;56427;51.580;4.656;2022-11-04T00:49:32;100194.47;;;8.82;100.00
69306;BME280;56427;51.580;4.656;2022-11-04T00:51:57;100199.25;;;8.87;100.00
69306;BME280;56427;51.580;4.656;2022-11-04T00:54:22;100198.16;;;8.89;100.00
69306;BME280;56427;51.580;4.656;2022-11-04T00:56:48;100187.13;;;8.87;100.00
69306;BME280;56427;51.580;4.656;2022-11-04T00:59:13;100187.13;;;8.87;100.00
69306;BME280;56427;51.580;4.656;2022-11-04T01:01:39;100187.69;;;8.91;100.00
69306;BME280;56427;51.580;4.656;2022-11-04T01:04:05;100191.38;;;8.88;100.00
69306;BME280;56427;51.580;4.656;2022-11-04T01:06:30;100195.31;;;8.92;100.00
69306;BME280;56427;51.580;4.656;2022-11-04T01:09:02;100190.94;;;8.83;100.00
69306;BME280;56427;51.580;4.656;2022-11-04T01:11:28;100199.91;;;8.79;100.00
69306;BME280;56427;51.580;4.656;2022-11-04T01:13:55;100200.44;;;8.73;100.00
69306;BME280;56427;51.580;4.656;2022-11-04T01:16:20;100207.50;;;8.71;100.00
69306;BME280;56427;51.580;4.656;2022-11-04T01:18:46;100207.47;;;8.61;100.00
69306;BME280;56427;51.580;4.656;2022-11-04T01:21:13;100212.91;;;8.58;100.00
69306;BME280;56427;51.580;4.656;2022-11-04T01:23:40;100199.97;;;8.58;100.00
69306;BME280;56427;51.580;4.656;2022-11-04T01:26:14;100200.34;;;8.53;100.00
69306;BME280;56427;51.580;4.656;2022-11-04T01:28:39;100199.81;;;8.50;100.00
69306;BME280;56427;51.580;4.656;2022-11-04T01:31:10;100196.22;;;8.41;100.00
69306;BME280;56427;51.580;4.656;2022-11-04T01:33:36;100204.22;;;8.38;100.00
69306;BME280;56427;51.580;4.656;2022-11-04T01:36:03;100198.22;;;8.37;100.00
69306;BME280;56427;51.580;4.656;2022-11-04T01:38:29;100196.72;;;8.35;100.00
69306;BME280;56427;51.580;4.656;2022-11-04T01:40:55;100198.06;;;8.29;100.00
69306;BME280;56427;51.580;4.656;2022-11-04T01:43:21;100199.38;;;8.23;100.00
69306;BME280;56427;51.580;4.656;2022-11-04T01:45:57;100204.53;;;8.23;100.00
69306;BME280;56427;51.580;4.656;2022-11-04T01:48:27;100208.34;;;8.19;100.00
69306;BME280;56427;51.580;4.656;2022-11-04T01:50:53;100206.50;;;8.10;100.00
69306;BME280;56427;51.580;4.656;2022-11-04T01:55:53;100215.47;;;8.06;100.00
69306;BME280;56427;51.580;4.656;2022-11-04T01:58:22;100213.28;;;8.01;100.00
69306;BME280;56427;51.580;4.656;2022-11-04T02:00:49;100211.63;;;8.00;100.00
69306;BME280;56427;51.580;4.656;2022-11-04T02:03:17;100221.63;;;7.93;100.00
69306;BME280;56427;51.580;4.656;2022-11-04T02:05:45;100216.84;;;7.89;100.00
69306;BME280;56427;51.580;4.656;2022-11-04T02:08:11;100212.25;;;7.92;100.00
69306;BME280;56427;51.580;4.656;2022-11-04T02:10:40;100212.44;;;7.80;100.00
69306;BME280;56427;51.580;4.656;2022-11-04T02:13:05;100214.19;;;7.79;100.00
69306;BME280;56427;51.580;4.656;2022-11-04T02:26:54;100225.41;;;7.68;100.00
69306;BME280;56427;51.580;4.656;2022-11-04T02:29:55;100225.66;;;7.65;100.00
69306;BME280;56427;51.580;4.656;2022-11-04T02:35:33;100233.88;;;7.59;100.00
69306;BME280;56427;51.580;4.656;2022-11-04T02:38:19;100226.13;;;7.59;100.00
69306;BME280;56427;51.580;4.656;2022-11-04T02:44:11;100240.72;;;7.49;100.00
69306;BME280;56427;51.580;4.656;2022-11-04T02:49:13;100237.47;;;7.47;100.00
69306;BME280;56427;51.580;4.656;2022-11-04T02:54:29;100231.81;;;7.42;100.00
69306;BME280;56427;51.580;4.656;2022-11-04T02:56:58;100231.81;;;7.42;100.00
69306;BME280;56427;51.580;4.656;2022-11-04T02:59:32;100239.44;;;7.43;100.00
69306;BME280;56427;51.580;4.656;2022-11-04T03:02:02;100232.53;;;7.44;100.00
69306;BME280;56427;51.580;4.656;2022-11-04T03:04:33;100240.41;;;7.42;100.00
69306;BME280;56427;51.580;4.656;2022-11-04T03:07:02;100233.34;;;7.44;100.00
69306;BME280;56427;51.580;4.656;2022-11-04T03:09:31;100235.13;;;7.44;100.00
69306;BME280;56427;51.580;4.656;2022-11-04T03:12:01;100242.03;;;7.43;100.00
69306;BME280;56427;51.580;4.656;2022-11-04T03:14:42;100230.88;;;7.43;100.00
69306;BME280;56427;51.580;4.656;2022-11-04T03:17:17;100237.13;;;7.40;100.00
69306;BME280;56427;51.580;4.656;2022-11-04T03:19:52;100232.31;;;7.35;100.00
69306;BME280;56427;51.580;4.656;2022-11-04T03:22:22;100230.09;;;7.31;100.00
69306;BME280;56427;51.580;4.656;2022-11-04T03:24:50;100240.19;;;7.34;100.00
69306;BME280;56427;51.580;4.656;2022-11-04T03:30:11;100239.09;;;7.36;100.00
69306;BME280;56427;51.580;4.656;2022-11-04T03:35:22;100243.59;;;7.34;100.00
69306;BME280;56427;51.580;4.656;2022-11-04T03:37:48;100238.44;;;7.23;100.00
69306;BME280;56427;51.580;4.656;2022-11-04T03:40:15;100240.56;;;7.18;100.00
69306;BME280;56427;51.580;4.656;2022-11-04T03:42:53;100238.22;;;7.15;100.00
69306;BME280;56427;51.580;4.656;2022-11-04T03:45:22;100238.22;;;7.15;100.00
69306;BME280;56427;51.580;4.656;2022-11-04T03:47:48;100235.06;;;7.11;100.00
69306;BME280;56427;51.580;4.656;2022-11-04T03:50:22;100237.06;;;7.08;100.00
69306;BME280;56427;51.580;4.656;2022-11-04T03:52:50;100238.78;;;7.18;100.00
69306;BME280;56427;51.580;4.656;2022-11-04T03:55:15;100240.69;;;7.05;100.00
69306;BME280;56427;51.580;4.656;2022-11-04T03:58:02;100247.16;;;6.99;100.00
69306;BME280;56427;51.580;4.656;2022-11-04T04:00:33;100253.13;;;7.00;100.00
69306;BME280;56427;51.580;4.656;2022-11-04T04:11:04;100254.91;;;6.88;100.00
69306;BME280;56427;51.580;4.656;2022-11-04T04:13:47;100265.13;;;6.90;100.00
69306;BME280;56427;51.580;4.656;2022-11-04T04:16:32;100263.34;;;6.90;100.00
69306;BME280;56427;51.580;4.656;2022-11-04T04:19:06;100272.75;;;6.91;100.00
69306;BME280;56427;51.580;4.656;2022-11-04T04:24:25;100267.00;;;6.88;100.00
69306;BME280;56427;51.580;4.656;2022-11-04T04:27:11;100269.56;;;6.88;100.00
69306;BME280;56427;51.580;4.656;2022-11-04T04:29:56;100261.50;;;6.81;100.00
69306;BME280;56427;51.580;4.656;2022-11-04T04:32:25;100270.38;;;6.77;100.00
69306;BME280;56427;51.580;4.656;2022-11-04T04:34:52;100276.47;;;6.76;100.00
69306;BME280;56427;51.580;4.656;2022-11-04T04:37:42;100282.34;;;6.78;100.00
69306;BME280;56427;51.580;4.656;2022-11-04T04:40:11;100278.81;;;6.79;100.00
69306;BME280;56427;51.580;4.656;2022-11-04T04:42:57;100275.53;;;6.77;100.00
69306;BME280;56427;51.580;4.656;2022-11-04T04:45:47;100274.84;;;6.75;100.00
69306;BME280;56427;51.580;4.656;2022-11-04T04:48:13;100275.06;;;6.72;100.00
69306;BME280;56427;51.580;4.656;2022-11-04T04:50:48;100288.31;;;6.67;100.00
69306;BME280;56427;51.580;4.656;2022-11-04T04:53:14;100285.38;;;6.72;100.00
69306;BME280;56427;51.580;4.656;2022-11-04T04:55:40;100288.53;;;6.64;100.00
69306;BME280;56427;51.580;4.656;2022-11-04T04:58:05;100294.66;;;6.63;100.00
69306;BME280;56427;51.580;4.656;2022-11-04T05:00:30;100299.44;;;6.56;100.00
69306;BME280;56427;51.580;4.656;2022-11-04T05:02:56;100300.97;;;6.59;100.00
69306;BME280;56427;51.580;4.656;2022-11-04T05:05:22;100307.19;;;6.56;100.00
69306;BME280;56427;51.580;4.656;2022-11-04T05:07:47;100311.97;;;6.61;100.00
69306;BME280;56427;51.580;4.656;2022-11-04T05:10:13;100314.47;;;6.74;100.00
69306;BME280;56427;51.580;4.656;2022-11-04T05:12:39;100314.22;;;6.77;100.00
69306;BME280;56427;51.580;4.656;2022-11-04T05:15:24;100321.75;;;6.91;100.00
69306;BME280;56427;51.580;4.656;2022-11-04T05:17:56;100323.38;;;6.92;100.00
69306;BME280;56427;51.580;4.656;2022-11-04T05:20:22;100318.81;;;6.96;100.00
69306;BME280;56427;51.580;4.656;2022-11-04T05:22:48;100321.28;;;6.97;100.00
69306;BME280;56427;51.580;4.656;2022-11-04T05:25:13;100322.81;;;7.00;100.00
69306;BME280;56427;51.580;4.656;2022-11-04T05:27:38;100316.00;;;7.10;100.00
69306;BME280;56427;51.580;4.656;2022-11-04T05:30:04;100321.25;;;7.09;100.00
69306;BME280;56427;51.580;4.656;2022-11-04T05:32:29;100324.69;;;7.21;100.00
69306;BME280;56427;51.580;4.656;2022-11-04T05:34:55;100329.38;;;7.15;100.00
69306;BME280;56427;51.580;4.656;2022-11-04T05:37:21;100334.16;;;7.09;100.00
69306;BME280;56427;51.580;4.656;2022-11-04T05:39:46;100339.72;;;7.04;100.00
69306;BME280;56427;51.580;4.656;2022-11-04T05:42:11;100339.09;;;7.12;100.00
69306;BME280;56427;51.580;4.656;2022-11-04T05:44:36;100340.41;;;7.06;100.00
69306;BME280;56427;51.580;4.656;2022-11-04T05:47:02;100338.16;;;7.13;100.00
69306;BME280;56427;51.580;4.656;2022-11-04T05:49:27;100345.09;;;7.12;100.00
69306;BME280;56427;51.580;4.656;2022-11-04T05:51:52;100347.91;;;7.09;100.00
69306;BME280;56427;51.580;4.656;2022-11-04T05:54:18;100346.25;;;7.08;100.00
69306;BME280;56427;51.580;4.656;2022-11-04T05:56:43;100350.16;;;7.14;100.00
69306;BME280;56427;51.580;4.656;2022-11-04T05:59:08;100354.13;;;7.07;100.00
69306;BME280;56427;51.580;4.656;2022-11-04T06:01:36;100352.72;;;7.14;100.00
69306;BME280;56427;51.580;4.656;2022-11-04T06:04:02;100356.69;;;7.07;100.00
69306;BME280;56427;51.580;4.656;2022-11-04T06:06:30;100357.63;;;7.17;100.00
69306;BME280;56427;51.580;4.656;2022-11-04T06:08:57;100361.63;;;7.21;100.00
69306;BME280;56427;51.580;4.656;2022-11-04T06:11:23;100366.78;;;7.21;100.00
69306;BME280;56427;51.580;4.656;2022-11-04T06:13:49;100370.66;;;7.27;100.00
69306;BME280;56427;51.580;4.656;2022-11-04T06:16:15;100369.59;;;7.29;100.00
69306;BME280;56427;51.580;4.656;2022-11-04T06:18:40;100371.84;;;7.34;100.00
69306;BME280;56427;51.580;4.656;2022-11-04T06:21:27;100382.97;;;7.34;100.00
69306;BME280;56427;51.580;4.656;2022-11-04T06:23:54;100387.44;;;7.32;100.00
69306;BME280;56427;51.580;4.656;2022-11-04T06:26:22;100386.72;;;7.42;100.00
69306;BME280;56427;51.580;4.656;2022-11-04T06:28:47;100388.38;;;7.31;100.00
69306;BME280;56427;51.580;4.656;2022-11-04T06:31:14;100389.91;;;7.34;100.00
69306;BME280;56427;51.580;4.656;2022-11-04T06:33:40;100394.13;;;7.35;100.00
69306;BME280;56427;51.580;4.656;2022-11-04T06:36:07;100403.41;;;7.37;100.00
69306;BME280;56427;51.580;4.656;2022-11-04T06:38:34;100406.09;;;7.47;100.00
69306;BME280;56427;51.580;4.656;2022-11-04T06:41:00;100411.63;;;7.43;100.00
69306;BME280;56427;51.580;4.656;2022-11-04T06:43:26;100415.50;;;7.37;100.00
69306;BME280;56427;51.580;4.656;2022-11-04T06:45:55;100412.31;;;7.33;100.00
69306;BME280;56427;51.580;4.656;2022-11-04T06:48:21;100419.00;;;7.47;100.00
69306;BME280;56427;51.580;4.656;2022-11-04T06:50:46;100417.81;;;7.63;100.00
69306;BME280;56427;51.580;4.656;2022-11-04T06:53:11;100409.00;;;7.77;100.00
69306;BME280;56427;51.580;4.656;2022-11-04T06:55:36;100418.72;;;7.84;100.00
69306;BME280;56427;51.580;4.656;2022-11-04T06:58:02;100419.69;;;7.83;100.00
69306;BME280;56427;51.580;4.656;2022-11-04T07:00:27;100426.47;;;7.96;100.00
69306;BME280;56427;51.580;4.656;2022-11-04T07:02:52;100427.63;;;8.03;100.00
69306;BME280;56427;51.580;4.656;2022-11-04T07:05:18;100425.19;;;8.01;100.00
69306;BME280;56427;51.580;4.656;2022-11-04T07:07:43;100418.22;;;8.13;100.00
69306;BME280;56427;51.580;4.656;2022-11-04T07:10:08;100421.88;;;7.99;100.00
69306;BME280;56427;51.580;4.656;2022-11-04T07:12:34;100418.22;;;8.13;100.00
69306;BME280;56427;51.580;4.656;2022-11-04T07:14:59;100426.97;;;8.22;100.00
69306;BME280;56427;51.580;4.656;2022-11-04T07:17:24;100426.22;;;8.42;100.00
69306;BME280;56427;51.580;4.656;2022-11-04T07:19:49;100436.75;;;8.62;100.00
69306;BME280;56427;51.580;4.656;2022-11-04T07:22:15;100436.22;;;8.68;100.00
69306;BME280;56427;51.580;4.656;2022-11-04T07:24:40;100436.44;;;8.76;100.00
69306;BME280;56427;51.580;4.656;2022-11-04T07:27:05;100440.66;;;8.77;100.00
69306;BME280;56427;51.580;4.656;2022-11-04T07:29:32;100443.50;;;8.95;100.00
69306;BME280;56427;51.580;4.656;2022-11-04T07:31:57;100446.16;;;8.84;100.00
69306;BME280;56427;51.580;4.656;2022-11-04T07:34:22;100453.72;;;8.76;100.00
69306;BME280;56427;51.580;4.656;2022-11-04T07:36:48;100447.75;;;8.75;100.00
69306;BME280;56427;51.580;4.656;2022-11-04T07:39:13;100454.47;;;8.66;100.00
69306;BME280;56427;51.580;4.656;2022-11-04T07:41:38;100462.16;;;8.57;100.00
69306;BME280;56427;51.580;4.656;2022-11-04T07:44:04;100466.84;;;8.63;100.00
69306;BME280;56427;51.580;4.656;2022-11-04T07:46:30;100479.56;;;8.55;100.00
69306;BME280;56427;51.580;4.656;2022-11-04T07:48:59;100484.56;;;8.68;100.00
69306;BME280;56427;51.580;4.656;2022-11-04T07:51:25;100485.19;;;8.60;100.00
69306;BME280;56427;51.580;4.656;2022-11-04T07:53:51;100489.72;;;8.79;100.00
69306;BME280;56427;51.580;4.656;2022-11-04T07:56:17;100492.13;;;8.59;100.00
69306;BME280;56427;51.580;4.656;2022-11-04T07:58:43;100490.75;;;8.76;100.00
69306;BME280;56427;51.580;4.656;2022-11-04T08:01:12;100498.13;;;8.92;100.00
69306;BME280;56427;51.580;4.656;2022-11-04T08:03:38;100505.75;;;8.94;100.00
69306;BME280;56427;51.580;4.656;2022-11-04T08:06:05;100499.97;;;9.01;100.00
69306;BME280;56427;51.580;4.656;2022-11-04T08:08:32;100512.19;;;8.99;100.00
69306;BME280;56427;51.580;4.656;2022-11-04T08:11:00;100512.06;;;9.01;100.00
69306;BME280;56427;51.580;4.656;2022-11-04T08:13:30;100512.19;;;8.99;100.00
69306;BME280;56427;51.580;4.656;2022-11-04T08:15:56;100507.53;;;8.93;100.00
69306;BME280;56427;51.580;4.656;2022-11-04T08:18:21;100510.47;;;8.89;100.00
69306;BME280;56427;51.580;4.656;2022-11-04T08:20:48;100506.31;;;8.97;100.00
69306;BME280;56427;51.580;4.656;2022-11-04T08:23:15;100514.34;;;9.15;100.00
69306;BME280;56427;51.580;4.656;2022-11-04T08:25:41;100516.75;;;9.28;100.00
69306;BME280;56427;51.580;4.656;2022-11-04T08:28:06;100516.00;;;9.37;100.00
69306;BME280;56427;51.580;4.656;2022-11-04T08:30:31;100516.00;;;9.37;100.00
69306;BME280;56427;51.580;4.656;2022-11-04T08:32:57;100529.81;;;9.06;100.00
69306;BME280;56427;51.580;4.656;2022-11-04T08:35:23;100519.69;;;9.02;100.00
69306;BME280;56427;51.580;4.656;2022-11-04T08:37:48;100526.72;;;9.33;100.00
69306;BME280;56427;51.580;4.656;2022-11-04T08:40:14;100520.22;;;9.38;100.00
69306;BME280;56427;51.580;4.656;2022-11-04T08:42:39;100512.75;;;9.45;100.00
69306;BME280;56427;51.580;4.656;2022-11-04T08:45:05;100518.66;;;9.26;100.00
69306;BME280;56427;51.580;4.656;2022-11-04T08:47:31;100518.91;;;9.23;100.00
69306;BME280;56427;51.580;4.656;2022-11-04T08:49:57;100518.03;;;9.13;100.00
69306;BME280;56427;51.580;4.656;2022-11-04T08:52:22;100531.38;;;9.39;100.00
69306;BME280;56427;51.580;4.656;2022-11-04T08:54:48;100539.38;;;9.57;100.00
69306;BME280;56427;51.580;4.656;2022-11-04T08:57:13;100541.72;;;9.60;100.00
69306;BME280;56427;51.580;4.656;2022-11-04T08:59:39;100546.38;;;9.87;100.00
69306;BME280;56427;51.580;4.656;2022-11-04T09:02:04;100547.38;;;10.06;100.00
69306;BME280;56427;51.580;4.656;2022-11-04T09:04:29;100553.75;;;9.92;100.00
69306;BME280;56427;51.580;4.656;2022-11-04T09:06:55;100556.59;;;9.89;100.00
69306;BME280;56427;51.580;4.656;2022-11-04T09:09:21;100547.94;;;10.09;100.00
69306;BME280;56427;51.580;4.656;2022-11-04T09:11:47;100560.16;;;10.28;100.00
69306;BME280;56427;51.580;4.656;2022-11-04T09:14:13;100557.81;;;10.25;100.00
69306;BME280;56427;51.580;4.656;2022-11-04T09:16:40;100562.72;;;10.59;100.00
69306;BME280;56427;51.580;4.656;2022-11-04T09:19:05;100561.59;;;10.52;100.00
69306;BME280;56427;51.580;4.656;2022-11-04T09:21:31;100560.75;;;10.32;100.00
69306;BME280;56427;51.580;4.656;2022-11-04T09:23:56;100568.63;;;10.30;100.00
69306;BME280;56427;51.580;4.656;2022-11-04T09:26:23;100574.94;;;10.38;100.00
69306;BME280;56427;51.580;4.656;2022-11-04T09:28:58;100587.69;;;10.50;100.00
69306;BME280;56427;51.580;4.656;2022-11-04T09:31:25;100587.28;;;10.55;100.00
69306;BME280;56427;51.580;4.656;2022-11-04T09:33:50;100595.75;;;10.57;100.00
69306;BME280;56427;51.580;4.656;2022-11-04T09:36:17;100598.75;;;10.43;100.00
69306;BME280;56427;51.580;4.656;2022-11-04T09:38:43;100599.06;;;10.28;100.00
69306;BME280;56427;51.580;4.656;2022-11-04T09:46:44;100619.28;;;10.75;100.00
69306;BME280;56427;51.580;4.656;2022-11-04T09:49:13;100627.91;;;11.05;100.00
69306;BME280;56427;51.580;4.656;2022-11-04T09:51:40;100624.91;;;10.90;100.00
69306;BME280;56427;51.580;4.656;2022-11-04T09:54:15;100616.16;;;10.91;100.00
69306;BME280;56427;51.580;4.656;2022-11-04T09:56:44;100628.06;;;11.03;100.00
69306;BME280;56427;51.580;4.656;2022-11-04T09:59:23;100630.94;;;11.00;100.00
69306;BME280;56427;51.580;4.656;2022-11-04T10:17:48;100643.03;;;12.35;100.00
69306;BME280;56427;51.580;4.656;2022-11-04T10:20:31;100646.59;;;11.96;100.00
69306;BME280;56427;51.580;4.656;2022-11-04T10:26:01;100668.97;;;11.40;100.00
69306;BME280;56427;51.580;4.656;2022-11-04T10:28:32;100678.50;;;11.79;100.00
69306;BME280;56427;51.580;4.656;2022-11-04T10:31:01;100671.66;;;11.78;100.00
69306;BME280;56427;51.580;4.656;2022-11-04T10:33:38;100683.81;;;11.77;100.00
69306;BME280;56427;51.580;4.656;2022-11-04T10:36:07;100685.06;;;11.24;100.00
69306;BME280;56427;51.580;4.656;2022-11-04T10:38:59;100699.47;;;11.48;100.00
69306;BME280;56427;51.580;4.656;2022-11-04T10:41:31;100686.88;;;11.73;100.00
69306;BME280;56427;51.580;4.656;2022-11-04T10:44:01;100682.63;;;11.62;100.00
69306;BME280;56427;51.580;4.656;2022-11-04T10:51:59;100699.34;;;12.36;100.00
69306;BME280;56427;51.580;4.656;2022-11-04T10:54:25;100694.38;;;11.76;100.00
69306;BME280;56427;51.580;4.656;2022-11-04T10:56:53;100688.06;;;12.08;100.00
69306;BME280;56427;51.580;4.656;2022-11-04T11:01:55;100693.56;;;11.95;100.00
69306;BME280;56427;51.580;4.656;2022-11-04T11:04:36;100693.69;;;12.03;100.00
69306;BME280;56427;51.580;4.656;2022-11-04T11:07:04;100695.91;;;12.36;100.00
69306;BME280;56427;51.580;4.656;2022-11-04T11:09:35;100690.19;;;12.32;100.00
69306;BME280;56427;51.580;4.656;2022-11-04T11:12:05;100692.06;;;12.95;100.00
69306;BME280;56427;51.580;4.656;2022-11-04T11:14:42;100697.94;;;12.97;100.00
69306;BME280;56427;51.580;4.656;2022-11-04T11:19:58;100696.72;;;13.19;100.00
69306;BME280;56427;51.580;4.656;2022-11-04T11:22:40;100704.53;;;13.19;100.00
69306;BME280;56427;51.580;4.656;2022-11-04T11:25:30;100711.25;;;13.40;100.00
69306;BME280;56427;51.580;4.656;2022-11-04T11:28:08;100711.06;;;13.23;100.00
69306;BME280;56427;51.580;4.656;2022-11-04T11:33:22;100721.28;;;12.61;100.00
69306;BME280;56427;51.580;4.656;2022-11-04T11:36:06;100720.91;;;12.84;100.00
69306;BME280;56427;51.580;4.656;2022-11-04T11:38:38;100723.69;;;13.00;100.00
69306;BME280;56427;51.580;4.656;2022-11-04T11:41:15;100718.72;;;12.79;100.00
69306;BME280;56427;51.580;4.656;2022-11-04T11:43:49;100713.75;;;12.86;100.00
69306;BME280;56427;51.580;4.656;2022-11-04T11:46:20;100727.78;;;13.31;100.00
69306;BME280;56427;51.580;4.656;2022-11-04T11:48:55;100715.63;;;13.21;100.00
69306;BME280;56427;51.580;4.656;2022-11-04T11:54:18;100725.16;;;13.13;100.00
69306;BME280;56427;51.580;4.656;2022-11-04T11:56:52;100730.94;;;13.06;100.00
69306;BME280;56427;51.580;4.656;2022-11-04T12:04:44;100733.81;;;12.76;100.00
69306;BME280;56427;51.580;4.656;2022-11-04T12:10:10;100751.66;;;12.70;100.00
69306;BME280;56427;51.580;4.656;2022-11-04T12:13:04;100747.97;;;12.73;100.00
69306;BME280;56427;51.580;4.656;2022-11-04T12:18:17;100758.44;;;12.63;100.00
69306;BME280;56427;51.580;4.656;2022-11-04T12:24:05;100766.38;;;12.62;100.00
69306;BME280;56427;51.580;4.656;2022-11-04T12:29:18;100784.22;;;12.57;100.00
69306;BME280;56427;51.580;4.656;2022-11-04T12:40:10;100797.41;;;12.36;100.00
69306;BME280;56427;51.580;4.656;2022-11-04T12:42:46;100799.03;;;12.37;100.00
69306;BME280;56427;51.580;4.656;2022-11-04T12:47:46;100807.34;;;12.60;100.00
69306;BME280;56427;51.580;4.656;2022-11-04T12:50:37;100801.31;;;12.59;100.00
69306;BME280;56427;51.580;4.656;2022-11-04T12:53:34;100814.59;;;12.56;100.00
69306;BME280;56427;51.580;4.656;2022-11-04T12:56:16;100809.41;;;12.56;100.00
69306;BME280;56427;51.580;4.656;2022-11-04T13:01:34;100803.50;;;12.64;100.00
69306;BME280;56427;51.580;4.656;2022-11-04T13:04:03;100820.91;;;12.63;100.00
69306;BME280;56427;51.580;4.656;2022-11-04T13:06:40;100813.16;;;12.44;100.00
69306;BME280;56427;51.580;4.656;2022-11-04T13:09:24;100813.75;;;12.75;100.00
69306;BME280;56427;51.580;4.656;2022-11-04T13:11:56;100822.75;;;12.81;100.00
69306;BME280;56427;51.580;4.656;2022-11-04T13:14:30;100828.59;;;12.65;100.00
69306;BME280;56427;51.580;4.656;2022-11-04T13:17:07;100825.63;;;12.87;100.00
69306;BME280;56427;51.580;4.656;2022-11-04T13:22:15;100836.97;;;12.96;100.00
69306;BME280;56427;51.580;4.656;2022-11-04T13:24:50;100844.56;;;12.80;100.00
69306;BME280;56427;51.580;4.656;2022-11-04T13:27:29;100839.81;;;12.65;100.00
69306;BME280;56427;51.580;4.656;2022-11-04T13:30:20;100848.91;;;12.42;100.00
69306;BME280;56427;51.580;4.656;2022-11-04T13:32:53;100854.81;;;12.05;100.00
69306;BME280;56427;51.580;4.656;2022-11-04T13:35:26;100857.88;;;11.59;100.00
69306;BME280;56427;51.580;4.656;2022-11-04T13:38:05;100867.50;;;11.38;100.00
69306;BME280;56427;51.580;4.656;2022-11-04T13:41:02;100876.13;;;11.29;100.00
69306;BME280;56427;51.580;4.656;2022-11-04T13:43:35;100887.25;;;10.58;100.00
69306;BME280;56427;51.580;4.656;2022-11-04T13:48:49;100889.84;;;10.14;100.00
69306;BME280;56427;51.580;4.656;2022-11-04T13:51:15;100887.06;;;10.06;100.00
69306;BME280;56427;51.580;4.656;2022-11-04T13:53:46;100894.84;;;10.06;100.00
69306;BME280;56427;51.580;4.656;2022-11-04T13:56:38;100897.66;;;10.03;100.00
69306;BME280;56427;51.580;4.656;2022-11-04T14:01:41;100908.34;;;9.77;100.00
69306;BME280;56427;51.580;4.656;2022-11-04T14:07:11;100937.69;;;9.66;100.00
69306;BME280;56427;51.580;4.656;2022-11-04T14:14:35;100958.41;;;9.89;100.00
69306;BME280;56427;51.580;4.656;2022-11-04T14:17:02;100959.34;;;9.76;100.00
69306;BME280;56427;51.580;4.656;2022-11-04T14:22:33;100967.84;;;9.67;100.00
69306;BME280;56427;51.580;4.656;2022-11-04T14:25:21;100970.78;;;9.85;100.00
69306;BME280;56427;51.580;4.656;2022-11-04T14:27:49;100973.63;;;9.82;100.00
69306;BME280;56427;51.580;4.656;2022-11-04T14:30:32;100973.19;;;10.09;100.00
69306;BME280;56427;51.580;4.656;2022-11-04T14:33:02;100981.72;;;10.00;100.00
69306;BME280;56427;51.580;4.656;2022-11-04T14:35:30;100988.97;;;10.18;100.00
69306;BME280;56427;51.580;4.656;2022-11-04T14:37:58;100990.31;;;10.12;100.00
69306;BME280;56427;51.580;4.656;2022-11-04T14:40:42;100996.09;;;9.93;100.00
69306;BME280;56427;51.580;4.656;2022-11-04T14:43:31;100997.16;;;10.02;100.00
69306;BME280;56427;51.580;4.656;2022-11-04T14:46:00;100997.88;;;10.04;100.00
69306;BME280;56427;51.580;4.656;2022-11-04T14:48:26;100989.13;;;10.05;100.00
69306;BME280;56427;51.580;4.656;2022-11-04T14:50:54;100989.00;;;10.06;100.00
69306;BME280;56427;51.580;4.656;2022-11-04T14:53:36;100987.59;;;10.02;100.00
69306;BME280;56427;51.580;4.656;2022-11-04T14:56:13;100989.28;;;10.03;100.00
69306;BME280;56427;51.580;4.656;2022-11-04T15:01:22;100991.47;;;10.19;100.00
69306;BME280;56427;51.580;4.656;2022-11-04T15:03:48;100995.38;;;10.02;100.00
69306;BME280;56427;51.580;4.656;2022-11-04T15:06:26;100996.31;;;10.01;100.00
69306;BME280;56427;51.580;4.656;2022-11-04T15:08:52;101002.47;;;10.00;100.00
69306;BME280;56427;51.580;4.656;2022-11-04T15:11:26;100997.75;;;10.05;100.00
69306;BME280;56427;51.580;4.656;2022-11-04T15:14:22;101004.72;;;9.93;100.00
69306;BME280;56427;51.580;4.656;2022-11-04T15:16:53;101009.75;;;10.06;100.00
69306;BME280;56427;51.580;4.656;2022-11-04T15:19:37;101010.38;;;9.99;100.00